Details From BIKF - Keflavik
To BGKK - Kulusuk
Flight Number -
Tags generated
Created
Modified
Stats Distance 396 nm / 733 km
Max Altitude 34,000 ft / 10,363 m
Waypoints 5
Social Downloads 0
Likes 0
Share VATSIM

Download

Looking for another format? Having issues loading an existing format? Contact us
Advertisement - Login to hide

Notes

Basic altitude profile: - Ascent Rate: 2500ft/min - Ascent Speed: 250kts - Cruise Altitude: 11000ft - Cruise Speed: 420kts - Descent Rate: 1500ft/min - Descent Speed: 250kts Options: - Use NATs: yes - Use PACOTS: yes - Use low airways: no - Use high airways: no

Route

BIKF 6400N02500W 6500N03000W 6500N03500W BGKK

ID Type Via Altitude Latitude Longitude Leg Dist Tot Dist Heading (true) Name
O BIKF APT - 0 ft / 0 m 63.98161˚ -22.61456˚ - 0 nm - Keflavik
6400N02500W LATLON - 22,400 ft / 6,828 m 64.00000˚ -25.00000˚ 62 nm 62 nm 272° / 270° -
6500N03000W LATLON - 34,000 ft / 10,363 m 65.00000˚ -30.00000˚ 142 nm 205 nm 297° / 293° -
6500N03500W LATLON - 12,600 ft / 3,840 m 65.00000˚ -35.00000˚ 126 nm 332 nm 272° / 268° -
O BGKK APT - 0 ft / 0 m 65.57361˚ -37.12361˚ 63 nm 395 nm 304° / 302° Kulusuk

Altitude Profile

Advertisement - Login to hide

Weather


0- 5 10 15 20 25 30 35+ Temperature / ° C

Clouds and Precipitation
Forecast for 2018-05-25 12:00 UTC. Updated 2 hours ago

Ground ~20,000 ft ~40,000 ft Winds

BIKF

Details ICAO BIKF (KEF)
Name Keflavik
Region Iceland
Timezone Atlantic/Reykjavik (UTC+0.0)
Stats Elevation 170 ft / 52 m (AMSL)
Location 63.981612° -22.614563°
Runways 2
Magnetic Variation 13.949° W

METAR

BIKF 251330Z 18016KT 9999 FEW030 BKN036 08/01 Q1022

Decode

TAF

TAF BIKF 250759Z 2509/2609 23015KT 9999 -SHRA FEW020CB SCT040 TX08/2515Z TN04/2606Z BECMG 2511/2514 17018KT BECMG 2520/2523 15025G35KT 6000 RA BKN008 OVC015 TEMPO 2523/2604 14030G45KT 4000 RA BR FEW002 BKN007 OVC013 BECMG 2606/2609 18018KT BKN015

Decode

Departure Runways

ID Width Length Bearing (true) Bearing (mag) Surface Threshold Offset Overrun Length
02 197 ft / 60 m 9,997 ft / 3,047 m 0.02° 13.97° Asphalt 0 ft / 0 m 492 ft / 150 m
11 197 ft / 60 m 10,022 ft / 3,055 m 89.97° 103.92° Asphalt 0 ft / 0 m 246 ft / 75 m
20 197 ft / 60 m 9,997 ft / 3,047 m 180.02° 193.97° Asphalt 0 ft / 0 m 98 ft / 30 m
29 197 ft / 60 m 10,022 ft / 3,055 m 270.02° 283.97° Asphalt 0 ft / 0 m 197 ft / 60 m

BGKK

Details ICAO BGKK
Name Kulusuk
Region Greenland
Timezone America/Godthab (UTC-2.0)
Stats Elevation 114 ft / 35 m (AMSL)
Location 65.573608° -37.123608°
Runways 1
Magnetic Variation 22.173° W

METAR

BGKK 251250Z 06007KT 9999 SCT005 M01/M02 Q1013

Decode

TAF

Not found

Destination Runways

ID Width Length Bearing (true) Bearing (mag) Surface Threshold Offset Overrun Length
11 98 ft / 30 m 3,956 ft / 1,206 m 83.99° 106.16° Gravel 0 ft / 0 m 0 ft / 0 m
29 98 ft / 30 m 3,956 ft / 1,206 m 264.01° 286.18° Gravel 0 ft / 0 m 0 ft / 0 m

Popular Alternatives